sensor_id;sensor_type;location;lat;lon;timestamp;temperature;humidity
18593;DHT22;9426;54.118;17.948;2023-04-28T14:40:57;22.20;35.10
18593;DHT22;9426;54.118;17.948;2023-04-28T14:47:07;24.00;33.40
18593;DHT22;9426;54.118;17.948;2023-04-28T14:52:30;25.00;30.40
18593;DHT22;9426;54.118;17.948;2023-04-28T14:57:56;23.60;32.30
18593;DHT22;9426;54.118;17.948;2023-04-28T15:17:34;19.50;35.20
18593;DHT22;9426;54.118;17.948;2023-04-28T15:30:48;22.80;32.30
18593;DHT22;9426;54.118;17.948;2023-04-28T15:36:12;21.10;33.90
18593;DHT22;9426;54.118;17.948;2023-04-28T15:41:36;22.00;32.70
18593;DHT22;9426;54.118;17.948;2023-04-28T15:46:59;22.20;31.40
18593;DHT22;9426;54.118;17.948;2023-04-28T15:52:24;21.10;31.60
18593;DHT22;9426;54.118;17.948;2023-04-28T15:57:49;20.10;36.00
18593;DHT22;9426;54.118;17.948;2023-04-28T16:03:13;20.20;33.20
18593;DHT22;9426;54.118;17.948;2023-04-28T16:08:38;19.10;34.20
18593;DHT22;9426;54.118;17.948;2023-04-28T16:14:02;17.30;39.20
18593;DHT22;9426;54.118;17.948;2023-04-28T16:19:26;16.60;39.40
18593;DHT22;9426;54.118;17.948;2023-04-28T16:24:51;15.80;42.40
18593;DHT22;9426;54.118;17.948;2023-04-28T16:30:15;15.50;43.80
18593;DHT22;9426;54.118;17.948;2023-04-28T16:35:39;15.30;45.00
18593;DHT22;9426;54.118;17.948;2023-04-28T16:41:04;14.90;45.10
18593;DHT22;9426;54.118;17.948;2023-04-28T16:46:29;14.60;46.90
18593;DHT22;9426;54.118;17.948;2023-04-28T16:51:57;14.60;50.20
18593;DHT22;9426;54.118;17.948;2023-04-28T16:57:22;15.10;48.60
18593;DHT22;9426;54.118;17.948;2023-04-28T17:02:46;15.10;49.30
18593;DHT22;9426;54.118;17.948;2023-04-28T17:08:09;14.80;49.70
18593;DHT22;9426;54.118;17.948;2023-04-28T17:13:35;14.50;49.80
18593;DHT22;9426;54.118;17.948;2023-04-28T17:18:59;14.30;51.30
18593;DHT22;9426;54.118;17.948;2023-04-28T17:24:23;13.70;52.00
18593;DHT22;9426;54.118;17.948;2023-04-28T17:29:50;13.20;53.00
18593;DHT22;9426;54.118;17.948;2023-04-28T17:35:15;12.60;55.10
18593;DHT22;9426;54.118;17.948;2023-04-28T17:40:39;12.10;56.30
18593;DHT22;9426;54.118;17.948;2023-04-28T17:46:20;11.80;57.70
18593;DHT22;9426;54.118;17.948;2023-04-28T17:51:44;11.40;58.10
18593;DHT22;9426;54.118;17.948;2023-04-28T17:57:09;11.00;61.10
18593;DHT22;9426;54.118;17.948;2023-04-28T18:02:34;10.70;65.20
18593;DHT22;9426;54.118;17.948;2023-04-28T18:08:00;10.40;68.00
18593;DHT22;9426;54.118;17.948;2023-04-28T18:13:24;10.00;73.10
18593;DHT22;9426;54.118;17.948;2023-04-28T18:18:51;9.70;76.30
18593;DHT22;9426;54.118;17.948;2023-04-28T18:24:15;9.40;85.10
18593;DHT22;9426;54.118;17.948;2023-04-28T18:29:39;9.20;92.60
18593;DHT22;9426;54.118;17.948;2023-04-28T18:35:06;9.00;97.60
18593;DHT22;9426;54.118;17.948;2023-04-28T18:40:32;8.80;99.90
18593;DHT22;9426;54.118;17.948;2023-04-28T18:45:56;8.60;99.90
18593;DHT22;9426;54.118;17.948;2023-04-28T18:51:25;8.50;99.90
18593;DHT22;9426;54.118;17.948;2023-04-28T18:56:49;8.40;99.90
18593;DHT22;9426;54.118;17.948;2023-04-28T19:02:13;8.20;99.90
18593;DHT22;9426;54.118;17.948;2023-04-28T19:07:38;8.10;99.90
18593;DHT22;9426;54.118;17.948;2023-04-28T19:13:03;8.10;99.90
18593;DHT22;9426;54.118;17.948;2023-04-28T19:18:27;8.00;99.90
18593;DHT22;9426;54.118;17.948;2023-04-28T19:23:53;7.90;99.90
18593;DHT22;9426;54.118;17.948;2023-04-28T19:29:17;7.80;99.90
18593;DHT22;9426;54.118;17.948;2023-04-28T19:34:41;7.80;99.90
18593;DHT22;9426;54.118;17.948;2023-04-28T19:40:08;7.70;99.90
18593;DHT22;9426;54.118;17.948;2023-04-28T19:45:32;7.70;99.90
18593;DHT22;9426;54.118;17.948;2023-04-28T19:51:00;7.70;99.90
18593;DHT22;9426;54.118;17.948;2023-04-28T19:56:27;7.60;99.90
18593;DHT22;9426;54.118;17.948;2023-04-28T20:01:56;7.60;99.90
18593;DHT22;9426;54.118;17.948;2023-04-28T20:07:20;7.60;99.90
18593;DHT22;9426;54.118;17.948;2023-04-28T20:12:49;7.60;99.90
18593;DHT22;9426;54.118;17.948;2023-04-28T20:18:14;7.30;99.90
18593;DHT22;9426;54.118;17.948;2023-04-28T20:23:39;7.50;99.90
18593;DHT22;9426;54.118;17.948;2023-04-28T20:29:08;7.50;99.90
18593;DHT22;9426;54.118;17.948;2023-04-28T20:34:33;7.50;99.90
18593;DHT22;9426;54.118;17.948;2023-04-28T20:39:57;7.40;99.90
18593;DHT22;9426;54.118;17.948;2023-04-28T20:45:23;7.30;99.90
18593;DHT22;9426;54.118;17.948;2023-04-28T20:50:48;7.30;99.90
18593;DHT22;9426;54.118;17.948;2023-04-28T20:56:14;7.30;99.90
18593;DHT22;9426;54.118;17.948;2023-04-28T21:01:39;7.30;99.90
18593;DHT22;9426;54.118;17.948;2023-04-28T21:07:03;7.20;99.90
18593;DHT22;9426;54.118;17.948;2023-04-28T21:12:27;7.20;99.90
18593;DHT22;9426;54.118;17.948;2023-04-28T21:17:52;7.10;99.90
18593;DHT22;9426;54.118;17.948;2023-04-28T21:23:16;7.10;99.90
18593;DHT22;9426;54.118;17.948;2023-04-28T21:28:39;7.10;99.90
18593;DHT22;9426;54.118;17.948;2023-04-28T21:34:05;7.10;99.90
18593;DHT22;9426;54.118;17.948;2023-04-28T21:39:29;7.00;99.90
18593;DHT22;9426;54.118;17.948;2023-04-28T21:44:52;6.90;99.90
18593;DHT22;9426;54.118;17.948;2023-04-28T21:50:18;6.90;99.90
18593;DHT22;9426;54.118;17.948;2023-04-28T21:55:42;6.80;99.90
18593;DHT22;9426;54.118;17.948;2023-04-28T22:01:07;6.70;99.90
18593;DHT22;9426;54.118;17.948;2023-04-28T22:06:32;6.70;99.90
18593;DHT22;9426;54.118;17.948;2023-04-28T22:11:55;6.60;99.90
18593;DHT22;9426;54.118;17.948;2023-04-28T22:17:19;6.60;99.90
18593;DHT22;9426;54.118;17.948;2023-04-28T22:22:45;6.50;99.90
18593;DHT22;9426;54.118;17.948;2023-04-28T22:28:08;6.50;99.90
18593;DHT22;9426;54.118;17.948;2023-04-28T22:33:32;6.40;99.90
18593;DHT22;9426;54.118;17.948;2023-04-28T22:38:57;6.30;99.90
18593;DHT22;9426;54.118;17.948;2023-04-28T22:44:21;6.30;99.90
18593;DHT22;9426;54.118;17.948;2023-04-28T22:49:44;6.30;99.90
18593;DHT22;9426;54.118;17.948;2023-04-28T22:55:12;6.20;99.90
18593;DHT22;9426;54.118;17.948;2023-04-28T23:00:36;6.20;99.90
18593;DHT22;9426;54.118;17.948;2023-04-28T23:06:00;6.10;99.90
18593;DHT22;9426;54.118;17.948;2023-04-28T23:11:24;6.10;99.90
18593;DHT22;9426;54.118;17.948;2023-04-28T23:16:48;6.10;99.90
18593;DHT22;9426;54.118;17.948;2023-04-28T23:22:12;6.00;99.90
18593;DHT22;9426;54.118;17.948;2023-04-28T23:27:38;6.00;99.90
18593;DHT22;9426;54.118;17.948;2023-04-28T23:33:01;6.00;99.90
18593;DHT22;9426;54.118;17.948;2023-04-28T23:38:24;6.00;99.90
18593;DHT22;9426;54.118;17.948;2023-04-28T23:43:50;6.00;99.90
18593;DHT22;9426;54.118;17.948;2023-04-28T23:49:15;5.90;99.90
18593;DHT22;9426;54.118;17.948;2023-04-28T23:54:39;5.90;99.90
